createdAt,value
2018-06-24T00:01:00.237Z,13.36
2018-06-24T00:04:04.546Z,13.31
2018-06-24T00:07:10.084Z,13.30
2018-06-24T00:10:14.121Z,13.30
2018-06-24T00:13:18.937Z,13.20
2018-06-24T00:16:23.290Z,13.11
2018-06-24T00:19:27.571Z,12.98
2018-06-24T00:22:32.834Z,12.86
2018-06-24T00:25:37.120Z,12.87
2018-06-24T00:28:41.408Z,12.64
2018-06-24T00:31:45.883Z,12.48
2018-06-24T00:34:50.374Z,12.32
2018-06-24T00:37:55.172Z,12.33
2018-06-24T00:40:59.467Z,12.38
2018-06-24T00:44:03.848Z,12.28
2018-06-24T00:47:08.162Z,12.23
2018-06-24T00:50:12.433Z,12.29
2018-06-24T00:53:17.349Z,12.32
2018-06-24T00:56:21.765Z,12.41
2018-06-24T00:59:44.153Z,12.50
2018-06-24T01:02:48.566Z,12.51
2018-06-24T01:05:54.010Z,12.51
2018-06-24T01:08:58.389Z,12.57
2018-06-24T01:12:03.648Z,12.56
2018-06-24T01:15:07.945Z,12.54
2018-06-24T01:18:12.284Z,12.58
2018-06-24T01:21:17.026Z,12.54
2018-06-24T01:24:21.467Z,12.51
2018-06-24T01:27:26.427Z,12.62
2018-06-24T01:30:30.755Z,12.59
2018-06-24T01:33:35.498Z,12.69
2018-06-24T01:36:40.141Z,12.67
2018-06-24T01:39:44.554Z,12.64
2018-06-24T01:42:48.876Z,12.61
2018-06-24T01:45:53.165Z,12.50
2018-06-24T01:48:58.004Z,12.57
2018-06-24T01:52:03.158Z,12.59
2018-06-24T01:55:07.692Z,12.54
2018-06-24T01:58:11.953Z,12.63
2018-06-24T02:01:17.333Z,12.60
2018-06-24T02:04:21.365Z,12.63
2018-06-24T02:07:25.665Z,12.60
2018-06-24T02:10:30.563Z,12.55
2018-06-24T02:13:35.275Z,12.60
2018-06-24T02:16:40.190Z,12.56
2018-06-24T02:19:44.493Z,12.52
2018-06-24T02:22:48.945Z,12.58
2018-06-24T02:25:53.804Z,12.60
2018-06-24T02:28:58.061Z,12.49
2018-06-24T02:32:02.326Z,12.49
2018-06-24T02:35:07.832Z,12.36
2018-06-24T02:38:12.121Z,12.36
2018-06-24T02:41:17.549Z,12.34
2018-06-24T02:44:21.824Z,12.27
2018-06-24T02:47:26.152Z,12.43
2018-06-24T02:50:30.473Z,12.41
2018-06-24T02:53:35.318Z,12.46
2018-06-24T02:56:39.629Z,12.40
2018-06-24T02:59:44.485Z,12.46
2018-06-24T03:02:48.861Z,12.43
2018-06-24T03:05:53.214Z,12.51
2018-06-24T03:08:57.530Z,12.59
2018-06-24T03:12:02.592Z,12.51
2018-06-24T03:15:07.022Z,12.62
2018-06-24T03:18:11.351Z,12.51
2018-06-24T03:21:15.719Z,12.50
2018-06-24T03:24:20.129Z,12.43
2018-06-24T03:27:24.423Z,12.46
2018-06-24T03:30:28.836Z,12.46
2018-06-24T03:33:34.149Z,12.37
2018-06-24T03:36:38.278Z,12.38
2018-06-24T03:39:42.584Z,12.32
2018-06-24T03:42:46.960Z,12.47
2018-06-24T03:45:52.081Z,12.48
2018-06-24T03:48:56.845Z,12.58
2018-06-24T03:52:01.576Z,12.48
2018-06-24T03:55:06.208Z,12.51
2018-06-24T03:58:10.892Z,12.54
2018-06-24T04:01:15.109Z,12.50
2018-06-24T04:04:19.544Z,12.59
2018-06-24T04:07:23.935Z,12.61
2018-06-24T04:10:28.483Z,12.64
2018-06-24T04:13:32.856Z,12.69
2018-06-24T04:16:37.458Z,12.88
2018-06-24T04:19:41.734Z,12.87
2018-06-24T04:22:46.067Z,12.80
2018-06-24T04:25:50.300Z,12.95
2018-06-24T04:28:54.632Z,12.99
2018-06-24T04:32:01.029Z,12.98
2018-06-24T04:35:05.521Z,13.06
2018-06-24T04:38:10.457Z,13.44
2018-06-24T04:41:15.536Z,13.52
2018-06-24T04:44:19.801Z,13.46
2018-06-24T04:47:24.359Z,13.53
2018-06-24T04:50:28.704Z,13.61
2018-06-24T04:53:33.067Z,13.54
2018-06-24T04:56:37.657Z,13.56
2018-06-24T04:59:42.012Z,13.54
2018-06-24T05:02:46.360Z,13.82
2018-06-24T05:05:50.713Z,14.00
2018-06-24T05:08:55.670Z,14.33
2018-06-24T05:12:00.225Z,14.13
2018-06-24T05:15:04.972Z,14.20
2018-06-24T05:18:09.469Z,14.33
2018-06-24T05:21:14.376Z,14.46
2018-06-24T05:24:19.174Z,14.30
2018-06-24T05:27:23.797Z,14.39
2018-06-24T05:30:28.537Z,14.59
2018-06-24T05:33:33.278Z,14.87
2018-06-24T05:36:38.184Z,15.20
2018-06-24T05:39:43.962Z,15.22
2018-06-24T05:42:48.297Z,15.31
2018-06-24T05:45:52.921Z,15.31
2018-06-24T05:48:57.812Z,15.38
2018-06-24T05:52:02.335Z,15.63
2018-06-24T05:55:06.908Z,15.70
2018-06-24T05:58:11.550Z,15.75
2018-06-24T06:01:16.073Z,16.26
2018-06-24T06:04:22.056Z,16.09
2018-06-24T06:07:27.128Z,15.65
2018-06-24T06:10:31.747Z,16.05
2018-06-24T06:13:37.569Z,15.15
2018-06-24T06:16:42.353Z,16.61
2018-06-24T06:19:46.758Z,18.10
2018-06-24T06:22:51.201Z,18.74
2018-06-24T06:25:56.295Z,19.60
2018-06-24T06:29:33.617Z,19.83
2018-06-24T06:32:40.226Z,20.96
2018-06-24T06:35:44.903Z,20.70
2018-06-24T06:38:49.404Z,21.55
2018-06-24T06:41:53.717Z,20.65
2018-06-24T06:44:58.220Z,18.17
2018-06-24T06:48:02.871Z,18.50
2018-06-24T06:51:08.872Z,18.05
2018-06-24T06:54:13.168Z,18.38
2018-06-24T06:57:17.621Z,18.05
2018-06-24T07:00:21.977Z,16.95
2018-06-24T07:03:26.399Z,16.48
2018-06-24T07:06:30.961Z,16.66
2018-06-24T07:09:35.217Z,16.95
2018-06-24T07:12:40.477Z,16.20
2018-06-24T07:15:45.874Z,16.77
2018-06-24T07:18:52.453Z,16.35
2018-06-24T07:21:56.721Z,16.44
2018-06-24T07:25:03.970Z,15.25
2018-06-24T07:28:09.569Z,15.05
2018-06-24T07:31:13.929Z,14.86
2018-06-24T07:34:18.280Z,14.84
2018-06-24T07:37:23.403Z,15.22
2018-06-24T07:40:28.146Z,15.47
2018-06-24T07:43:32.780Z,15.77
2018-06-24T07:46:38.502Z,15.55
2018-06-24T07:50:00.595Z,15.42
2018-06-24T07:53:05.419Z,15.84
2018-06-24T07:56:11.467Z,15.88
2018-06-24T07:59:23.171Z,15.85
2018-06-24T08:02:27.458Z,15.55
2018-06-24T08:05:32.721Z,16.04
2018-06-24T08:08:37.225Z,18.15
2018-06-24T08:11:42.228Z,17.70
2018-06-24T08:14:47.064Z,18.31
2018-06-24T08:17:51.542Z,19.45
2018-06-24T08:20:55.953Z,20.25
2018-06-24T08:24:00.769Z,17.22
2018-06-24T08:27:05.681Z,17.14
2018-06-24T08:30:10.006Z,17.74
2018-06-24T08:33:14.714Z,16.99
2018-06-24T08:36:19.309Z,17.71
2018-06-24T08:39:24.601Z,17.10
2018-06-24T08:42:29.141Z,17.60
2018-06-24T08:45:33.730Z,17.99
2018-06-24T08:48:38.578Z,19.05
2018-06-24T08:51:43.150Z,18.48
2018-06-24T08:54:47.564Z,16.73
2018-06-24T08:57:52.313Z,16.40
2018-06-24T09:00:56.712Z,16.34
2018-06-24T09:04:09.777Z,17.41
2018-06-24T09:07:14.498Z,18.34
2018-06-24T09:10:20.196Z,18.71
2018-06-24T09:13:24.719Z,17.18
2018-06-24T09:16:29.557Z,16.75
2018-06-24T09:19:34.264Z,18.02
2018-06-24T09:22:39.471Z,17.85
2018-06-24T09:25:44.441Z,17.66
2018-06-24T09:28:49.058Z,17.12
2018-06-24T09:31:53.359Z,17.36
2018-06-24T09:34:58.732Z,18.35
2018-06-24T09:38:03.361Z,17.16
2018-06-24T09:41:07.887Z,16.75
2018-06-24T09:44:12.259Z,16.57
2018-06-24T09:47:16.782Z,16.72
2018-06-24T09:50:21.277Z,16.66
2018-06-24T09:53:25.705Z,17.13
2018-06-24T09:56:30.578Z,17.23
2018-06-24T09:59:35.731Z,17.86
2018-06-24T10:02:41.076Z,17.64
2018-06-24T10:05:46.649Z,18.32
2018-06-24T10:08:53.901Z,18.62
2018-06-24T10:11:58.942Z,18.79
2018-06-24T10:15:03.378Z,17.77
2018-06-24T10:18:08.403Z,18.14
2018-06-24T10:21:12.796Z,18.13
2018-06-24T10:24:17.187Z,17.77
2018-06-24T10:27:21.636Z,19.00
2018-06-24T10:30:25.926Z,17.68
2018-06-24T10:33:30.293Z,18.50
2018-06-24T10:36:35.069Z,19.07
2018-06-24T10:39:39.333Z,19.13
2018-06-24T10:42:44.257Z,19.16
2018-06-24T10:45:48.774Z,18.48
2018-06-24T10:48:53.412Z,19.19
2018-06-24T10:51:57.749Z,19.01
2018-06-24T10:55:02.474Z,19.73
2018-06-24T10:58:07.223Z,19.92
2018-06-24T11:01:11.642Z,19.08
2018-06-24T11:04:16.839Z,18.79
2018-06-24T11:07:21.141Z,19.33
2018-06-24T11:10:25.750Z,19.14
2018-06-24T11:13:30.254Z,19.47
2018-06-24T11:16:37.559Z,19.00
2018-06-24T11:19:41.891Z,19.21
2018-06-24T11:22:46.342Z,18.97
2018-06-24T11:25:51.768Z,18.45
2018-06-24T11:28:56.221Z,18.15
2018-06-24T11:32:00.591Z,18.54
2018-06-24T11:35:04.896Z,19.31
2018-06-24T11:38:09.799Z,19.46
2018-06-24T11:41:14.122Z,19.19
2018-06-24T11:44:18.461Z,18.80
2018-06-24T11:47:22.994Z,19.48
2018-06-24T11:50:27.418Z,20.25
2018-06-24T11:53:31.836Z,19.14
2018-06-24T11:56:36.509Z,18.45
2018-06-24T11:59:40.831Z,18.86
2018-06-24T12:02:45.556Z,19.71
2018-06-24T12:05:49.806Z,19.99
2018-06-24T12:08:54.062Z,19.93
2018-06-24T12:11:58.502Z,19.25
2018-06-24T12:15:02.789Z,20.38
2018-06-24T12:18:07.422Z,20.07
2018-06-24T12:21:11.766Z,19.15
2018-06-24T12:24:16.035Z,19.24
2018-06-24T12:27:20.709Z,19.56
2018-06-24T12:30:24.981Z,20.21
2018-06-24T12:33:29.878Z,19.63
2018-06-24T12:36:39.995Z,18.84
2018-06-24T12:39:44.282Z,19.65
2018-06-24T12:42:49.095Z,19.92
2018-06-24T12:45:54.278Z,19.85
2018-06-24T12:48:58.722Z,19.64
2018-06-24T12:52:02.997Z,20.01
2018-06-24T12:55:07.432Z,20.88
2018-06-24T12:58:12.207Z,19.25
2018-06-24T13:01:16.612Z,18.84
2018-06-24T13:04:21.261Z,19.01
2018-06-24T13:07:25.643Z,20.13
2018-06-24T13:10:29.945Z,19.86
2018-06-24T13:13:34.785Z,20.09
2018-06-24T13:16:39.146Z,20.80
2018-06-24T13:19:43.485Z,21.60
2018-06-24T13:22:47.962Z,20.56
2018-06-24T13:25:52.286Z,21.07
2018-06-24T13:28:56.580Z,19.48
2018-06-24T13:32:00.880Z,19.63
2018-06-24T13:35:05.430Z,19.32
2018-06-24T13:38:09.721Z,19.28
2018-06-24T13:41:14.729Z,19.40
2018-06-24T13:44:19.037Z,19.95
2018-06-24T13:47:23.446Z,20.03
2018-06-24T13:50:27.796Z,19.39
2018-06-24T13:53:32.107Z,19.51
2018-06-24T13:56:37.760Z,19.82
2018-06-24T13:59:42.066Z,20.14
2018-06-24T14:02:46.364Z,20.22
2018-06-24T14:05:50.667Z,20.41
2018-06-24T14:08:55.075Z,20.45
2018-06-24T14:11:59.687Z,20.36
2018-06-24T14:15:04.229Z,20.63
2018-06-24T14:18:09.136Z,20.36
2018-06-24T14:21:14.094Z,19.38
2018-06-24T14:24:18.505Z,20.19
2018-06-24T14:27:23.349Z,20.41
2018-06-24T14:30:28.101Z,19.71
2018-06-24T14:33:32.614Z,20.12
2018-06-24T14:36:38.591Z,20.20
2018-06-24T14:39:43.051Z,20.09
2018-06-24T14:42:48.088Z,19.37
2018-06-24T14:45:53.692Z,19.30
2018-06-24T14:48:59.073Z,19.79
2018-06-24T14:52:03.663Z,19.54
2018-06-24T14:55:08.489Z,19.00
2018-06-24T14:58:13.397Z,19.36
2018-06-24T15:01:18.100Z,19.50
2018-06-24T15:04:22.569Z,19.91
2018-06-24T15:07:27.740Z,20.13
2018-06-24T15:10:32.065Z,20.02
2018-06-24T15:13:37.205Z,19.56
2018-06-24T15:16:41.732Z,19.88
2018-06-24T15:19:46.276Z,19.76
2018-06-24T15:22:50.715Z,19.86
2018-06-24T15:25:55.166Z,19.66
2018-06-24T15:28:59.839Z,19.46
2018-06-24T15:32:04.324Z,19.68
2018-06-24T15:35:08.905Z,19.64
2018-06-24T15:38:13.433Z,19.86
2018-06-24T15:41:18.017Z,19.80
2018-06-24T15:44:22.463Z,20.03
2018-06-24T15:47:26.906Z,19.95
2018-06-24T15:50:32.056Z,19.52
2018-06-24T15:53:36.888Z,19.22
2018-06-24T15:56:41.418Z,19.47
2018-06-24T15:59:45.697Z,19.55
2018-06-24T16:02:50.730Z,19.85
2018-06-24T16:05:55.071Z,19.39
2018-06-24T16:08:59.578Z,19.44
2018-06-24T16:12:03.625Z,19.47
2018-06-24T16:15:08.459Z,19.38
2018-06-24T16:18:13.355Z,19.71
2018-06-24T16:21:17.892Z,19.58
2018-06-24T16:24:23.146Z,19.69
2018-06-24T16:27:27.862Z,19.79
2018-06-24T16:30:37.436Z,19.55
2018-06-24T16:33:41.875Z,19.57
2018-06-24T16:36:46.463Z,19.23
2018-06-24T16:39:51.926Z,19.13
2018-06-24T16:42:56.969Z,19.18
2018-06-24T16:46:02.090Z,19.15
2018-06-24T16:49:06.673Z,19.03
2018-06-24T16:52:11.894Z,19.01
2018-06-24T16:55:16.461Z,18.84
2018-06-24T16:58:20.910Z,18.79
2018-06-24T17:01:25.525Z,18.93
2018-06-24T17:04:29.958Z,18.82
2018-06-24T17:07:35.041Z,18.84
2018-06-24T17:10:39.449Z,19.17
2018-06-24T17:13:43.848Z,19.70
2018-06-24T17:16:48.336Z,19.44
2018-06-24T17:19:53.091Z,19.67
2018-06-24T17:22:58.696Z,19.40
2018-06-24T17:26:04.783Z,19.60
2018-06-24T17:29:09.547Z,18.99
2018-06-24T17:32:14.321Z,18.62
2018-06-24T17:35:19.123Z,18.64
2018-06-24T17:38:23.597Z,18.63
2018-06-24T17:41:28.329Z,18.66
2018-06-24T17:44:32.947Z,18.60
2018-06-24T17:47:39.047Z,17.97
2018-06-24T17:50:43.617Z,17.83
2018-06-24T17:53:48.371Z,17.65
2018-06-24T17:56:53.653Z,17.33
2018-06-24T17:59:58.460Z,17.33
2018-06-24T18:03:03.706Z,17.22
2018-06-24T18:06:09.001Z,17.17
2018-06-24T18:09:14.746Z,17.08
2018-06-24T18:12:19.218Z,17.04
2018-06-24T18:15:24.111Z,17.05
2018-06-24T18:18:28.700Z,16.82
2018-06-24T18:21:33.144Z,16.87
2018-06-24T18:24:38.038Z,16.74
2018-06-24T18:27:42.588Z,16.78
2018-06-24T18:30:47.523Z,16.75
2018-06-24T18:33:52.008Z,16.68
2018-06-24T18:36:56.576Z,16.71
2018-06-24T18:40:01.279Z,16.64
2018-06-24T18:43:06.631Z,16.63
2018-06-24T18:46:11.487Z,16.59
2018-06-24T18:49:16.083Z,16.55
2018-06-24T18:52:20.839Z,16.45
2018-06-24T18:55:26.048Z,16.40
2018-06-24T18:58:30.489Z,16.36
2018-06-24T19:01:35.349Z,16.35
2018-06-24T19:04:39.810Z,16.34
2018-06-24T19:07:44.242Z,16.35
2018-06-24T19:10:48.900Z,16.31
2018-06-24T19:13:53.521Z,16.24
2018-06-24T19:16:57.881Z,16.16
2018-06-24T19:20:02.773Z,16.13
2018-06-24T19:23:07.505Z,16.20
2018-06-24T19:26:11.652Z,16.07
2018-06-24T19:29:16.018Z,16.00
2018-06-24T19:32:21.642Z,15.98
2018-06-24T19:35:26.044Z,16.01
2018-06-24T19:38:30.921Z,16.05
2018-06-24T19:41:35.552Z,16.14
2018-06-24T19:44:39.955Z,16.20
2018-06-24T19:47:44.267Z,16.16
2018-06-24T19:50:48.869Z,16.13
2018-06-24T19:53:53.553Z,16.06
2018-06-24T19:56:58.325Z,15.98
2018-06-24T20:00:02.937Z,15.98
2018-06-24T20:03:07.983Z,16.00
2018-06-24T20:06:12.372Z,16.03
2018-06-24T20:09:16.787Z,16.00
2018-06-24T20:12:21.524Z,16.08
2018-06-24T20:15:26.021Z,16.02
2018-06-24T20:18:30.285Z,15.99
2018-06-24T20:21:34.667Z,15.95
2018-06-24T20:24:39.007Z,15.91
2018-06-24T20:27:43.331Z,15.92
2018-06-24T20:30:48.118Z,15.94
2018-06-24T20:33:52.645Z,15.86
2018-06-24T20:36:56.914Z,15.86
2018-06-24T20:40:01.432Z,15.83
2018-06-24T20:43:06.090Z,15.80
2018-06-24T20:46:10.572Z,15.79
2018-06-24T20:49:14.840Z,15.77
2018-06-24T20:52:19.137Z,15.75
2018-06-24T20:55:24.751Z,15.71
2018-06-24T20:58:29.180Z,15.67
2018-06-24T21:01:33.860Z,15.68
2018-06-24T21:04:38.696Z,15.71
2018-06-24T21:07:43.132Z,15.63
2018-06-24T21:10:47.440Z,15.41
2018-06-24T21:13:52.876Z,15.45
2018-06-24T21:16:57.322Z,15.26
2018-06-24T21:20:02.066Z,15.13
2018-06-24T21:23:07.088Z,15.19
2018-06-24T21:26:11.439Z,15.25
2018-06-24T21:29:15.823Z,15.26
2018-06-24T21:32:20.232Z,15.23
2018-06-24T21:35:24.601Z,15.21
2018-06-24T21:38:28.878Z,15.28
2018-06-24T21:41:33.165Z,15.28
2018-06-24T21:44:39.080Z,15.19
2018-06-24T21:47:43.405Z,15.11
2018-06-24T21:50:47.825Z,15.09
2018-06-24T21:53:52.698Z,15.11
2018-06-24T21:56:56.975Z,15.04
2018-06-24T22:00:02.174Z,15.07
2018-06-24T22:03:06.631Z,15.05
2018-06-24T22:06:10.896Z,15.05
2018-06-24T22:09:15.209Z,15.05
2018-06-24T22:12:19.713Z,15.06
2018-06-24T22:15:24.551Z,15.08
2018-06-24T22:18:29.030Z,15.03
2018-06-24T22:21:33.437Z,14.86
2018-06-24T22:24:37.736Z,14.82
2018-06-24T22:27:42.073Z,14.81
2018-06-24T22:30:46.662Z,14.76
2018-06-24T22:33:51.319Z,14.78
2018-06-24T22:36:55.660Z,14.73
2018-06-24T22:39:59.940Z,14.71
2018-06-24T22:43:04.326Z,14.47
2018-06-24T22:46:08.714Z,14.51
2018-06-24T22:49:13.434Z,14.58
2018-06-24T22:52:18.269Z,14.59
2018-06-24T22:55:22.586Z,14.51
2018-06-24T22:58:26.907Z,14.46
2018-06-24T23:01:31.663Z,14.49
2018-06-24T23:04:36.260Z,14.43
2018-06-24T23:07:41.930Z,14.54
2018-06-24T23:10:46.697Z,14.32
2018-06-24T23:13:52.177Z,14.18
2018-06-24T23:16:56.534Z,14.22
2018-06-24T23:20:00.970Z,14.29
2018-06-24T23:23:05.019Z,14.45
2018-06-24T23:26:09.326Z,14.43
2018-06-24T23:29:13.624Z,14.43
2018-06-24T23:32:18.818Z,14.33
2018-06-24T23:35:23.164Z,14.21
2018-06-24T23:38:27.481Z,14.12
2018-06-24T23:41:31.807Z,13.97
2018-06-24T23:44:36.934Z,14.01
2018-06-24T23:47:41.260Z,13.99
2018-06-24T23:50:45.586Z,13.83
2018-06-24T23:53:50.547Z,13.94
2018-06-24T23:56:55.450Z,13.99
2018-06-24T23:59:59.809Z,13.96
